Terminal Aerodrome Forecast
Issued by NWS

Home | Current Version | Previous Version | Text Only | Print | Product List | Glossary On
Versions: 1 2 3 4 5 6 7 8 9 10 11 12 13 14 15 16 17 18 19 20
000
FTUS45 KBOU 010535
TAFAPA
TAF
KAPA 010535Z 0106/0206 17014KT P6SM FEW120
     FM011300 24006KT P6SM SKC
     FM011600 VRB04KT P6SM FEW120
     FM011900 15009KT P6SM FEW090 SCT120
     FM012200 14017G25KT P6SM SCT090 SCT120
     FM020300 17014KT P6SM FEW120=

USA.gov is the U.S. government's official web portal to all federal, state and local government web resources and services.